Time;durP1;ratioP1;P1;durP2;ratioP2;P2;SDS_P1;SDS_P2;PMS_P1;PMS_P2;Temp;Humidity;BMP_temperature;BMP_pressure;BME280_temperature;BME280_humidity;BME280_pressure;Samples;Min_cycle;Max_cycle;Signal;HPM_P1;HPM_P2
2021/12/04 00:02:10;;;;;;;0.70;0.47;;;;;;;;;;5010288;28;20551;-75
2021/12/04 00:04:39;;;;;;;1.00;0.50;;;;;;;;;;5010525;28;20068;-75
2021/12/04 00:07:06;;;;;;;0.60;0.30;;;;;;;;;;5006593;28;20037;-74
2021/12/04 00:09:32;;;;;;;0.80;0.40;;;;;;;;;;5009424;28;20084;-75
2021/12/04 00:12:00;;;;;;;1.60;0.50;;;;;;;;;;5008366;28;20099;-73
2021/12/04 00:14:26;;;;;;;2.00;0.50;;;;;;;;;;5006351;28;20118;-75
2021/12/04 00:16:51;;;;;;;1.10;0.30;;;;;;;;;;5009539;28;20116;-75
2021/12/04 00:19:17;;;;;;;1.50;0.43;;;;;;;;;;5010687;28;20809;-75
2021/12/04 00:21:42;;;;;;;2.23;0.40;;;;;;;;;;5010688;28;20157;-74
2021/12/04 00:24:08;;;;;;;0.73;0.30;;;;;;;;;;5011821;28;20107;-74
2021/12/04 00:26:33;;;;;;;2.53;0.50;;;;;;;;;;5011354;28;20376;-75
2021/12/04 00:28:58;;;;;;;2.07;0.50;;;;;;;;;;5008516;28;20076;-75
2021/12/04 00:31:23;;;;;;;0.60;0.40;;;;;;;;;;5007134;28;20052;-75
2021/12/04 00:33:49;;;;;;;1.27;0.40;;;;;;;;;;5006316;28;20022;-75
2021/12/04 00:49:55;;;;;;;1.77;0.43;;;;;;;;;;4977366;28;20073;-74
2021/12/04 00:52:20;;;;;;;1.73;0.50;;;;;;;;;;4975557;28;20038;-75
2021/12/04 00:54:46;;;;;;;0.93;0.50;;;;;;;;;;4972851;28;20026;-74
2021/12/04 00:57:11;;;;;;;1.40;0.33;;;;;;;;;;4975834;28;20034;-75
2021/12/04 00:59:37;;;;;;;1.97;0.40;;;;;;;;;;4986276;28;20042;-74
2021/12/04 01:02:02;;;;;;;1.10;0.50;;;;;;;;;;4991845;28;20035;-75
2021/12/04 01:04:27;;;;;;;0.87;0.47;;;;;;;;;;4988969;28;20125;-74
2021/12/04 01:06:53;;;;;;;0.90;0.50;;;;;;;;;;4952240;28;20042;-75
2021/12/04 01:09:19;;;;;;;1.63;0.80;;;;;;;;;;4989777;28;20033;-74
2021/12/04 01:11:45;;;;;;;0.90;0.60;;;;;;;;;;4992206;28;20042;-71
2021/12/04 01:14:11;;;;;;;1.27;0.50;;;;;;;;;;4974706;28;20028;-75
2021/12/04 01:16:36;;;;;;;1.57;0.70;;;;;;;;;;4990154;28;20026;-74
2021/12/04 01:19:02;;;;;;;1.57;0.60;;;;;;;;;;5007078;28;20088;-74
2021/12/04 01:21:27;;;;;;;0.93;0.57;;;;;;;;;;5011647;28;20518;-74
2021/12/04 01:23:54;;;;;;;1.63;0.70;;;;;;;;;;5007966;28;20050;-74
2021/12/04 01:26:20;;;;;;;1.90;0.60;;;;;;;;;;5004397;28;20030;-76
2021/12/04 01:28:45;;;;;;;1.50;0.60;;;;;;;;;;5007963;28;20044;-75
2021/12/04 01:31:10;;;;;;;1.73;0.67;;;;;;;;;;5012182;28;20378;-76
2021/12/04 01:33:35;;;;;;;1.00;0.57;;;;;;;;;;5008603;28;20037;-75
2021/12/04 01:36:01;;;;;;;2.10;0.70;;;;;;;;;;4991889;28;20064;-76
2021/12/04 01:38:26;;;;;;;2.20;0.60;;;;;;;;;;5008796;28;20022;-75
2021/12/04 01:40:51;;;;;;;0.90;0.50;;;;;;;;;;5012866;28;20018;-76
2021/12/04 01:43:16;;;;;;;2.93;0.90;;;;;;;;;;5013259;28;20033;-76
2021/12/04 01:45:41;;;;;;;1.40;0.70;;;;;;;;;;5008347;28;20541;-76
2021/12/04 01:48:07;;;;;;;3.33;0.70;;;;;;;;;;5005057;28;20057;-76
2021/12/04 01:50:33;;;;;;;1.57;0.70;;;;;;;;;;5008445;28;20103;-76
2021/12/04 01:52:59;;;;;;;4.00;0.60;;;;;;;;;;5011395;28;20025;-74
2021/12/04 01:55:28;;;;;;;1.57;0.67;;;;;;;;;;5009691;28;20041;-74
2021/12/04 01:57:54;;;;;;;2.30;0.60;;;;;;;;;;5008810;28;20021;-75
2021/12/04 02:00:20;;;;;;;1.03;0.70;;;;;;;;;;5010918;28;20540;-75
2021/12/04 02:02:45;;;;;;;2.77;0.80;;;;;;;;;;5011084;28;20426;-74
2021/12/04 02:05:10;;;;;;;0.90;0.40;;;;;;;;;;5011886;28;20024;-75
2021/12/04 02:07:36;;;;;;;2.20;0.57;;;;;;;;;;5010234;28;20018;-75
2021/12/04 02:10:03;;;;;;;2.03;0.70;;;;;;;;;;5009888;28;20481;-75
2021/12/04 02:12:28;;;;;;;1.87;0.70;;;;;;;;;;5007236;28;20033;-75
2021/12/04 02:14:53;;;;;;;1.53;0.60;;;;;;;;;;5028231;28;20071;-76
2021/12/04 02:17:19;;;;;;;1.53;0.50;;;;;;;;;;5011379;28;20026;-75
2021/12/04 02:19:47;;;;;;;2.13;0.53;;;;;;;;;;5010320;28;20069;-76
2021/12/04 02:22:12;;;;;;;1.67;0.77;;;;;;;;;;5009545;28;20112;-76
2021/12/04 02:24:37;;;;;;;0.60;0.60;;;;;;;;;;5010148;28;20153;-76
2021/12/04 02:27:03;;;;;;;1.00;0.50;;;;;;;;;;5010501;28;20021;-76
2021/12/04 02:29:28;;;;;;;1.10;0.40;;;;;;;;;;5002915;28;20026;-76
2021/12/04 02:31:55;;;;;;;0.90;0.67;;;;;;;;;;5007134;28;20021;-77
2021/12/04 02:34:25;;;;;;;1.30;0.80;;;;;;;;;;5008820;28;20105;-76
2021/12/04 02:36:50;;;;;;;2.27;1.07;;;;;;;;;;5011787;28;20029;-76
2021/12/04 02:39:24;;;;;;;1.07;0.73;;;;;;;;;;5007632;28;20018;-75
2021/12/04 02:41:50;;;;;;;1.87;0.73;;;;;;;;;;5009415;28;20502;-76
2021/12/04 02:44:15;;;;;;;1.80;1.07;;;;;;;;;;5010116;28;20049;-76
2021/12/04 02:46:40;;;;;;;2.47;1.40;;;;;;;;;;5010438;28;20482;-77
2021/12/04 02:49:07;;;;;;;1.10;0.90;;;;;;;;;;5008747;28;20053;-76
2021/12/04 02:51:32;;;;;;;1.80;1.50;;;;;;;;;;5009785;28;20498;-76
2021/12/04 02:53:58;;;;;;;6.70;1.57;;;;;;;;;;5008177;28;20030;-75
2021/12/04 02:56:25;;;;;;;3.77;2.30;;;;;;;;;;5009976;28;20049;-75
2021/12/04 02:58:53;;;;;;;3.43;2.80;;;;;;;;;;5006683;28;20022;-75
2021/12/04 03:01:18;;;;;;;3.83;3.10;;;;;;;;;;4998601;28;20644;-75
2021/12/04 03:03:43;;;;;;;4.43;2.93;;;;;;;;;;4992013;28;20026;-75
2021/12/04 03:06:08;;;;;;;5.13;3.70;;;;;;;;;;5001371;28;20030;-76
2021/12/04 03:08:34;;;;;;;6.93;4.37;;;;;;;;;;4986643;28;20034;-76
2021/12/04 03:10:59;;;;;;;8.47;4.43;;;;;;;;;;5010725;28;20470;-75
2021/12/04 03:13:24;;;;;;;7.60;4.73;;;;;;;;;;5009097;28;20497;-75
2021/12/04 03:15:57;;;;;;;6.13;4.13;;;;;;;;;;5008768;28;20033;-76
2021/12/04 03:18:22;;;;;;;4.47;3.77;;;;;;;;;;5011166;28;20022;-75
2021/12/04 03:20:50;;;;;;;7.53;4.53;;;;;;;;;;5009361;28;20026;-74
2021/12/04 03:23:19;;;;;;;6.83;5.00;;;;;;;;;;5008449;28;20030;-75
2021/12/04 03:25:48;;;;;;;6.93;4.83;;;;;;;;;;5010717;28;20030;-75
2021/12/04 03:28:15;;;;;;;6.77;5.10;;;;;;;;;;5005330;28;20046;-76
2021/12/04 03:30:46;;;;;;;7.47;5.50;;;;;;;;;;4994267;28;20486;-75
2021/12/04 03:41:08;;;;;;;8.77;5.37;;;;;;;;;;5014579;28;20505;-76
2021/12/04 03:43:34;;;;;;;11.47;5.83;;;;;;;;;;5013316;28;20428;-74
2021/12/04 03:46:02;;;;;;;8.33;5.30;;;;;;;;;;5014107;28;20076;-75
2021/12/04 03:50:57;;;;;;;10.43;6.20;;;;;;;;;;5007162;28;20382;-75
2021/12/04 03:53:22;;;;;;;10.53;6.63;;;;;;;;;;4995649;28;20034;-75
2021/12/04 03:55:48;;;;;;;11.20;6.70;;;;;;;;;;5010118;28;20022;-76
2021/12/04 03:58:14;;;;;;;10.63;6.23;;;;;;;;;;5003407;28;20021;-76
2021/12/04 04:00:39;;;;;;;10.77;6.67;;;;;;;;;;5012803;28;20030;-75
2021/12/04 04:03:04;;;;;;;10.83;6.63;;;;;;;;;;5007622;28;20042;-76
2021/12/04 04:05:29;;;;;;;11.13;6.63;;;;;;;;;;5013175;28;20108;-75
2021/12/04 04:07:55;;;;;;;12.50;7.27;;;;;;;;;;5013390;28;20071;-73
2021/12/04 04:10:21;;;;;;;14.57;7.33;;;;;;;;;;5013898;28;20056;-75
2021/12/04 04:12:46;;;;;;;15.07;8.20;;;;;;;;;;5012967;28;20387;-76
2021/12/04 04:15:12;;;;;;;14.67;7.80;;;;;;;;;;5012758;28;20022;-76
2021/12/04 04:17:42;;;;;;;12.23;7.10;;;;;;;;;;5024398;28;20025;-75
2021/12/04 04:20:09;;;;;;;16.63;7.87;;;;;;;;;;5012806;28;20014;-75
2021/12/04 04:22:34;;;;;;;15.07;7.33;;;;;;;;;;5011903;28;20201;-76
2021/12/04 04:24:59;;;;;;;13.13;7.63;;;;;;;;;;4995386;28;20445;-75
2021/12/04 04:27:24;;;;;;;12.50;7.30;;;;;;;;;;5011050;28;20498;-76
2021/12/04 04:29:49;;;;;;;14.50;8.20;;;;;;;;;;4994247;28;20423;-75
2021/12/04 04:32:14;;;;;;;15.17;7.57;;;;;;;;;;5012312;28;20112;-75
2021/12/04 04:34:40;;;;;;;16.53;7.73;;;;;;;;;;5009647;28;20030;-76
2021/12/04 04:40:25;;;;;;;18.57;9.03;;;;;;;;;;5012452;28;20037;-76
2021/12/04 05:12:24;;;;;;;8.20;5.23;;;;;;;;;;4993798;28;20041;-76
2021/12/04 05:14:55;;;;;;;8.27;5.33;;;;;;;;;;5007345;28;20113;-76
2021/12/04 05:19:55;;;;;;;7.53;5.10;;;;;;;;;;5011110;28;20053;-74
2021/12/04 05:22:21;;;;;;;9.00;5.97;;;;;;;;;;5011660;28;20395;-76
2021/12/04 05:24:47;;;;;;;10.13;6.10;;;;;;;;;;5011313;28;20461;-75
2021/12/04 05:27:12;;;;;;;9.40;5.60;;;;;;;;;;4993801;28;20544;-76
2021/12/04 05:29:37;;;;;;;8.27;5.57;;;;;;;;;;4987935;28;20470;-75
2021/12/04 05:32:04;;;;;;;9.97;5.87;;;;;;;;;;5005272;28;20121;-75
2021/12/04 05:34:30;;;;;;;10.53;6.27;;;;;;;;;;5011777;28;20547;-75
2021/12/04 05:36:55;;;;;;;11.00;6.40;;;;;;;;;;5010281;28;20022;-74
2021/12/04 05:39:20;;;;;;;10.10;6.27;;;;;;;;;;5002377;28;20014;-75
2021/12/04 05:41:45;;;;;;;11.37;7.30;;;;;;;;;;5013312;28;20048;-74
2021/12/04 05:44:12;;;;;;;10.30;6.33;;;;;;;;;;5010354;28;20018;-75
2021/12/04 05:46:42;;;;;;;11.70;6.50;;;;;;;;;;5009062;28;20363;-74
2021/12/04 05:49:58;;;;;;;10.00;6.00;;;;;;;;;;5010009;28;20120;-75
2021/12/04 05:57:05;;;;;;;11.00;6.70;;;;;;;;;;5006791;28;20014;-75
2021/12/04 05:59:30;;;;;;;11.37;6.63;;;;;;;;;;5001014;28;20026;-76
2021/12/04 06:01:55;;;;;;;10.60;6.53;;;;;;;;;;5002265;28;20117;-75
2021/12/04 06:04:21;;;;;;;10.20;7.37;;;;;;;;;;5004870;28;20022;-75
2021/12/04 06:06:46;;;;;;;9.53;6.53;;;;;;;;;;5004141;28;20157;-75
2021/12/04 06:09:11;;;;;;;8.73;5.90;;;;;;;;;;5001399;28;20014;-76
2021/12/04 06:11:36;;;;;;;10.93;7.60;;;;;;;;;;5007452;28;20018;-75
2021/12/04 06:14:02;;;;;;;9.30;6.97;;;;;;;;;;5005127;28;20463;-76
2021/12/04 06:16:28;;;;;;;8.37;6.50;;;;;;;;;;4986155;28;20026;-76
2021/12/04 06:18:54;;;;;;;9.93;6.43;;;;;;;;;;5004526;28;20100;-75
2021/12/04 06:24:04;;;;;;;7.47;5.37;;;;;;;;;;5002260;28;20175;-75
2021/12/04 06:26:29;;;;;;;9.53;7.00;;;;;;;;;;5005693;28;20117;-75
2021/12/04 06:28:54;;;;;;;9.13;6.20;;;;;;;;;;4997208;28;20478;-72
2021/12/04 06:31:20;;;;;;;10.60;7.40;;;;;;;;;;4985847;28;20033;-75
2021/12/04 06:33:45;;;;;;;8.33;6.40;;;;;;;;;;5005253;28;20041;-75
2021/12/04 06:36:10;;;;;;;8.70;6.13;;;;;;;;;;5004827;28;20622;-74
2021/12/04 06:38:36;;;;;;;9.73;6.23;;;;;;;;;;5004288;28;20378;-74
2021/12/04 06:41:01;;;;;;;10.70;7.17;;;;;;;;;;5002472;28;20054;-75
2021/12/04 06:43:27;;;;;;;10.70;7.10;;;;;;;;;;4999295;28;20038;-74
2021/12/04 06:46:00;;;;;;;7.40;5.67;;;;;;;;;;5003598;28;20026;-75
2021/12/04 06:48:32;;;;;;;8.07;5.57;;;;;;;;;;5002652;28;20038;-75
2021/12/04 06:51:09;;;;;;;6.87;4.57;;;;;;;;;;5003503;28;20129;-74
2021/12/04 06:56:05;;;;;;;4.60;3.83;;;;;;;;;;5002499;28;20134;-74
2021/12/04 06:58:30;;;;;;;5.00;4.17;;;;;;;;;;4999744;28;20030;-74
2021/12/04 07:00:56;;;;;;;4.80;4.03;;;;;;;;;;4981706;28;20034;-74
2021/12/04 07:03:21;;;;;;;5.23;3.73;;;;;;;;;;4995967;28;20591;-75
2021/12/04 07:05:46;;;;;;;6.17;4.03;;;;;;;;;;4999984;28;20033;-74
2021/12/04 07:08:12;;;;;;;5.43;4.37;;;;;;;;;;4994503;28;20056;-75
2021/12/04 07:10:37;;;;;;;5.53;4.60;;;;;;;;;;5003854;28;20117;-75
2021/12/04 07:13:02;;;;;;;5.87;4.87;;;;;;;;;;4984685;28;20030;-74
2021/12/04 07:15:30;;;;;;;5.23;4.33;;;;;;;;;;4998828;28;20035;-74
2021/12/04 07:17:56;;;;;;;5.90;5.00;;;;;;;;;;4998342;28;20022;-74
2021/12/04 07:20:21;;;;;;;8.37;5.17;;;;;;;;;;5001428;28;20033;-75
2021/12/04 07:22:46;;;;;;;7.07;5.50;;;;;;;;;;4993965;28;20031;-75
2021/12/04 07:25:11;;;;;;;8.00;5.50;;;;;;;;;;5003941;28;20049;-75
2021/12/04 07:27:37;;;;;;;6.20;4.87;;;;;;;;;;5004901;28;20041;-74
2021/12/04 07:30:03;;;;;;;6.10;4.80;;;;;;;;;;4999920;28;20116;-75
2021/12/04 07:32:29;;;;;;;7.50;4.83;;;;;;;;;;5003994;28;20112;-75
2021/12/04 07:34:54;;;;;;;6.30;4.60;;;;;;;;;;5001805;28;20466;-73
2021/12/04 07:37:20;;;;;;;5.17;4.60;;;;;;;;;;4999586;28;20077;-73
2021/12/04 07:39:45;;;;;;;5.70;4.07;;;;;;;;;;5003005;28;20021;-74
2021/12/04 07:42:11;;;;;;;7.60;4.20;;;;;;;;;;5006003;28;20407;-74
2021/12/04 07:44:36;;;;;;;5.27;4.00;;;;;;;;;;4996983;28;20021;-74
2021/12/04 07:47:01;;;;;;;5.57;4.17;;;;;;;;;;5002722;28;20030;-74
2021/12/04 07:49:26;;;;;;;4.90;4.13;;;;;;;;;;4996097;28;20393;-74
2021/12/04 07:51:52;;;;;;;7.13;4.23;;;;;;;;;;5002923;28;20026;-73
2021/12/04 07:54:17;;;;;;;6.90;4.67;;;;;;;;;;5002178;28;20022;-74
2021/12/04 07:56:43;;;;;;;5.90;4.47;;;;;;;;;;5005077;28;20025;-72
2021/12/04 07:59:08;;;;;;;6.00;4.40;;;;;;;;;;4995325;28;20025;-74
2021/12/04 08:01:33;;;;;;;6.50;4.60;;;;;;;;;;5000909;28;20108;-74
2021/12/04 08:03:59;;;;;;;5.53;4.43;;;;;;;;;;4985693;28;20118;-74
2021/12/04 08:06:24;;;;;;;6.70;4.77;;;;;;;;;;5002245;28;20029;-74
2021/12/04 08:08:52;;;;;;;7.07;4.10;;;;;;;;;;4997518;28;20018;-73
2021/12/04 08:11:17;;;;;;;6.37;4.33;;;;;;;;;;5004723;28;20049;-74
2021/12/04 08:13:43;;;;;;;5.17;4.07;;;;;;;;;;5006178;28;20088;-74
2021/12/04 08:16:08;;;;;;;4.17;3.40;;;;;;;;;;5005332;28;20049;-74
2021/12/04 08:18:34;;;;;;;4.47;3.70;;;;;;;;;;5006319;28;20053;-73
2021/12/04 08:20:59;;;;;;;5.03;3.67;;;;;;;;;;5012975;28;20130;-74
2021/12/04 08:23:24;;;;;;;4.60;3.07;;;;;;;;;;5010438;28;20109;-73
2021/12/04 08:25:50;;;;;;;3.13;2.43;;;;;;;;;;5009613;28;20029;-75
2021/12/04 08:28:15;;;;;;;3.27;2.73;;;;;;;;;;5004967;28;20471;-74
2021/12/04 08:30:40;;;;;;;3.50;2.90;;;;;;;;;;5010078;28;20036;-73
2021/12/04 08:33:07;;;;;;;3.60;2.80;;;;;;;;;;5004114;28;20063;-74
2021/12/04 08:35:38;;;;;;;5.27;2.90;;;;;;;;;;5007693;28;20478;-74
2021/12/04 08:38:04;;;;;;;3.30;2.47;;;;;;;;;;5009582;28;20030;-75
2021/12/04 08:40:30;;;;;;;4.47;2.63;;;;;;;;;;5008568;28;20028;-74
2021/12/04 08:42:55;;;;;;;2.35;2.08;;;;;;;;;;5009321;28;20014;-74
2021/12/04 08:45:20;;;;;;;2.90;2.43;;;;;;;;;;5006828;28;20041;-74
2021/12/04 08:47:45;;;;;;;3.72;2.45;;;;;;;;;;5008660;28;20041;-74
2021/12/04 08:50:13;;;;;;;3.85;2.60;;;;;;;;;;5002914;28;20068;-74
2021/12/04 08:52:39;;;;;;;4.13;2.53;;;;;;;;;;5001250;28;20505;-74
2021/12/04 08:55:05;;;;;;;3.30;2.70;;;;;;;;;;5003757;28;20022;-74
2021/12/04 08:57:30;;;;;;;5.32;2.83;;;;;;;;;;5005786;28;20546;-74
2021/12/04 08:59:55;;;;;;;5.60;3.05;;;;;;;;;;4992138;28;20022;-74
2021/12/04 09:02:21;;;;;;;3.60;3.17;;;;;;;;;;4985278;28;20030;-74
2021/12/04 09:04:47;;;;;;;6.15;3.40;;;;;;;;;;5006140;28;20129;-74
2021/12/04 09:07:12;;;;;;;3.45;3.15;;;;;;;;;;5003430;28;20018;-74
2021/12/04 09:09:38;;;;;;;3.65;3.05;;;;;;;;;;5008350;28;20030;-75
2021/12/04 09:12:05;;;;;;;4.75;2.97;;;;;;;;;;5011299;28;20495;-75
2021/12/04 09:14:32;;;;;;;3.30;3.00;;;;;;;;;;5012163;28;20053;-75
2021/12/04 09:16:59;;;;;;;4.43;2.90;;;;;;;;;;5004538;28;20673;-75
2021/12/04 09:19:25;;;;;;;3.20;2.90;;;;;;;;;;5004799;28;20437;-74
2021/12/04 09:21:51;;;;;;;3.85;3.33;;;;;;;;;;5003766;28;20010;-74
2021/12/04 09:24:24;;;;;;;4.00;3.60;;;;;;;;;;5002754;28;20565;-75
2021/12/04 09:29:47;;;;;;;4.13;3.25;;;;;;;;;;5001210;28;20057;-75
2021/12/04 10:13:07;;;;;;;3.25;1.70;;;;;;;;;;5008309;28;20041;-74
2021/12/04 10:34:14;;;;;;;2.17;1.98;;;;;;;;;;5010415;28;20040;-75
2021/12/04 10:36:40;;;;;;;2.28;2.08;;;;;;;;;;4991560;28;20025;-75
2021/12/04 10:39:08;;;;;;;2.50;1.67;;;;;;;;;;5011116;28;20071;-74
2021/12/04 10:41:39;;;;;;;2.15;1.80;;;;;;;;;;5005802;28;20398;-72
2021/12/04 10:44:34;;;;;;;2.40;2.20;;;;;;;;;;5005636;28;20548;-74
2021/12/04 10:47:02;;;;;;;2.75;2.03;;;;;;;;;;5000283;28;20036;-74
2021/12/04 10:52:47;;;;;;;2.28;1.55;;;;;;;;;;4987297;28;20045;-75
2021/12/04 10:55:22;;;;;;;2.75;2.00;;;;;;;;;;5009674;28;20100;-75
2021/12/04 11:02:52;;;;;;;2.03;1.83;;;;;;;;;;5010474;28;20017;-75
2021/12/04 11:22:25;;;;;;;2.60;2.25;;;;;;;;;;4988188;28;20026;-75
2021/12/04 11:44:22;;;;;;;2.33;2.13;;;;;;;;;;4932638;29;20473;-75
2021/12/04 11:46:50;;;;;;;1.50;1.40;;;;;;;;;;4941359;29;20125;-74
2021/12/04 11:49:18;;;;;;;2.17;1.98;;;;;;;;;;4912223;29;20122;-74
2021/12/04 11:51:48;;;;;;;2.03;1.88;;;;;;;;;;4931062;29;20433;-74
2021/12/04 11:54:15;;;;;;;1.92;1.80;;;;;;;;;;4944157;28;20400;-75
2021/12/04 11:56:42;;;;;;;1.98;1.85;;;;;;;;;;4930850;29;20114;-75
2021/12/04 11:59:07;;;;;;;1.52;1.42;;;;;;;;;;4936307;29;20028;-73
2021/12/04 12:01:34;;;;;;;1.75;1.65;;;;;;;;;;4932881;29;20541;-75
2021/12/04 12:04:03;;;;;;;1.67;1.50;;;;;;;;;;4935943;29;20114;-74
2021/12/04 12:06:30;;;;;;;1.85;1.73;;;;;;;;;;4938825;29;20038;-74
2021/12/04 12:09:06;;;;;;;1.38;1.27;;;;;;;;;;4940715;28;20027;-74
2021/12/04 12:11:32;;;;;;;1.65;1.55;;;;;;;;;;4932604;29;20020;-74
2021/12/04 12:13:59;;;;;;;1.70;1.60;;;;;;;;;;4951909;28;20104;-74
2021/12/04 12:16:27;;;;;;;2.33;1.83;;;;;;;;;;5013127;28;20080;-72
2021/12/04 12:18:56;;;;;;;1.90;1.70;;;;;;;;;;5012601;28;20068;-75
2021/12/04 12:21:26;;;;;;;2.10;1.85;;;;;;;;;;5010987;28;20394;-76
2021/12/04 12:27:11;;;;;;;2.13;1.77;;;;;;;;;;5014129;28;20041;-75
2021/12/04 12:38:30;;;;;;;2.22;2.03;;;;;;;;;;4947191;28;20090;-76
2021/12/04 12:40:57;;;;;;;2.38;2.17;;;;;;;;;;4947275;29;20704;-76
2021/12/04 12:43:22;;;;;;;2.40;2.15;;;;;;;;;;4942928;29;20473;-75
2021/12/04 12:45:51;;;;;;;1.98;1.55;;;;;;;;;;4929867;29;20070;-74
2021/12/04 12:48:17;;;;;;;2.60;2.10;;;;;;;;;;4930090;29;20078;-75
2021/12/04 12:50:43;;;;;;;3.22;2.50;;;;;;;;;;4944671;29;20123;-76
2021/12/04 12:53:10;;;;;;;3.05;2.08;;;;;;;;;;4942955;28;20507;-76
2021/12/04 12:55:36;;;;;;;2.65;2.13;;;;;;;;;;4923977;29;20120;-75
2021/12/04 12:58:17;;;;;;;2.08;1.80;;;;;;;;;;4944982;29;20431;-75
2021/12/04 13:11:53;;;;;;;2.35;2.15;;;;;;;;;;4957113;28;20053;-75
2021/12/04 13:14:27;;;;;;;2.35;2.13;;;;;;;;;;5004231;28;20073;-76
2021/12/04 13:17:00;;;;;;;2.63;2.10;;;;;;;;;;5001876;28;20014;-76
2021/12/04 13:19:26;;;;;;;2.83;2.30;;;;;;;;;;5008646;28;20081;-75
2021/12/04 13:21:53;;;;;;;3.00;2.55;;;;;;;;;;5002200;28;20022;-76
2021/12/04 13:24:21;;;;;;;2.55;2.35;;;;;;;;;;4997735;28;20125;-76
2021/12/04 13:26:48;;;;;;;2.72;2.30;;;;;;;;;;5003842;28;20034;-75
2021/12/04 13:29:15;;;;;;;2.70;2.50;;;;;;;;;;5002611;28;20492;-75
2021/12/04 13:31:40;;;;;;;3.22;2.65;;;;;;;;;;5002380;28;20021;-75
2021/12/04 13:34:07;;;;;;;2.78;2.58;;;;;;;;;;5004841;28;20746;-75
2021/12/04 13:36:32;;;;;;;2.58;2.38;;;;;;;;;;5006697;28;20022;-76
2021/12/04 13:39:03;;;;;;;2.88;2.63;;;;;;;;;;5006956;28;20099;-75
2021/12/04 13:41:29;;;;;;;2.78;2.58;;;;;;;;;;5003978;28;20027;-75
2021/12/04 13:43:55;;;;;;;4.22;3.83;;;;;;;;;;5004853;28;20400;-76
2021/12/04 13:46:20;;;;;;;2.55;2.33;;;;;;;;;;5007363;28;20018;-76
2021/12/04 13:48:46;;;;;;;3.10;2.35;;;;;;;;;;4981382;28;20029;-74
2021/12/04 13:51:11;;;;;;;3.72;3.28;;;;;;;;;;4988898;28;20032;-75
2021/12/04 13:53:38;;;;;;;3.22;2.92;;;;;;;;;;5008401;28;20025;-74
2021/12/04 13:56:06;;;;;;;2.97;2.50;;;;;;;;;;5007230;28;20102;-75
2021/12/04 13:58:31;;;;;;;3.15;2.85;;;;;;;;;;5003536;28;20040;-75
2021/12/04 14:00:58;;;;;;;3.33;2.92;;;;;;;;;;5019252;28;20026;-75
2021/12/04 14:03:25;;;;;;;3.70;2.85;;;;;;;;;;5010950;28;20054;-74
2021/12/04 14:05:51;;;;;;;4.35;3.47;;;;;;;;;;5011803;28;20045;-76
2021/12/04 14:08:16;;;;;;;3.65;3.13;;;;;;;;;;5011990;28;20056;-75
2021/12/04 14:10:46;;;;;;;3.17;2.67;;;;;;;;;;5010480;28;20048;-76
2021/12/04 14:13:16;;;;;;;3.08;2.78;;;;;;;;;;4993426;28;20105;-75
2021/12/04 14:15:44;;;;;;;3.42;3.08;;;;;;;;;;4998963;28;20028;-74
2021/12/04 14:18:10;;;;;;;4.00;3.10;;;;;;;;;;5011215;28;20563;-74
2021/12/04 14:20:37;;;;;;;3.88;3.25;;;;;;;;;;5012752;28;20018;-73
2021/12/04 14:23:02;;;;;;;3.95;3.55;;;;;;;;;;5011056;28;20467;-75
2021/12/04 14:25:28;;;;;;;4.38;3.13;;;;;;;;;;5011416;28;20096;-74
2021/12/04 14:27:54;;;;;;;3.92;3.53;;;;;;;;;;5009386;28;20026;-74
2021/12/04 14:30:33;;;;;;;4.75;3.55;;;;;;;;;;5008717;28;20072;-75
2021/12/04 14:33:01;;;;;;;5.68;3.92;;;;;;;;;;5006599;28;20036;-75
2021/12/04 14:35:27;;;;;;;4.80;3.80;;;;;;;;;;5011813;28;20025;-75
2021/12/04 14:37:54;;;;;;;5.45;4.00;;;;;;;;;;4999178;28;20045;-74
2021/12/04 14:40:21;;;;;;;3.80;3.40;;;;;;;;;;5025517;28;20022;-75
2021/12/04 14:42:47;;;;;;;3.90;2.88;;;;;;;;;;5009598;28;20030;-75
2021/12/04 14:45:12;;;;;;;3.60;3.30;;;;;;;;;;5012364;28;20032;-76
2021/12/04 14:47:41;;;;;;;3.35;2.70;;;;;;;;;;5011375;28;20036;-75
2021/12/04 14:50:08;;;;;;;4.40;3.30;;;;;;;;;;5011697;28;20048;-74
2021/12/04 14:52:33;;;;;;;3.83;3.22;;;;;;;;;;5011885;28;20077;-74
2021/12/04 14:55:00;;;;;;;3.63;3.13;;;;;;;;;;4998374;28;20027;-75
2021/12/04 14:57:26;;;;;;;3.55;2.88;;;;;;;;;;5010492;28;20112;-75
2021/12/04 14:59:59;;;;;;;3.95;3.55;;;;;;;;;;5007863;28;20013;-75
2021/12/04 15:02:25;;;;;;;3.55;3.15;;;;;;;;;;5011802;28;20060;-75
2021/12/04 15:04:51;;;;;;;4.38;3.17;;;;;;;;;;4997801;28;20030;-75
2021/12/04 15:07:19;;;;;;;3.42;3.13;;;;;;;;;;4997212;28;20113;-75
2021/12/04 15:09:44;;;;;;;4.18;3.03;;;;;;;;;;5011845;28;20092;-74
2021/12/04 15:12:09;;;;;;;3.65;2.53;;;;;;;;;;4994128;28;20457;-76
2021/12/04 15:14:34;;;;;;;3.67;3.10;;;;;;;;;;4990891;28;20434;-75
2021/12/04 15:17:06;;;;;;;3.87;2.97;;;;;;;;;;5006064;28;20052;-75
2021/12/04 15:19:41;;;;;;;3.03;2.28;;;;;;;;;;5011866;28;20018;-75
2021/12/04 15:22:08;;;;;;;4.45;3.13;;;;;;;;;;4990964;28;20018;-73
2021/12/04 15:24:37;;;;;;;3.08;2.75;;;;;;;;;;4997468;28;20503;-74
2021/12/04 15:27:04;;;;;;;3.42;2.97;;;;;;;;;;5002462;28;20101;-74
2021/12/04 15:29:31;;;;;;;3.30;3.00;;;;;;;;;;5011133;28;20429;-74
2021/12/04 15:31:58;;;;;;;4.13;3.23;;;;;;;;;;5014160;28;20021;-74
2021/12/04 15:34:34;;;;;;;3.63;3.00;;;;;;;;;;5014414;28;20033;-71
2021/12/04 15:37:05;;;;;;;3.63;2.80;;;;;;;;;;5007575;28;20028;-74
2021/12/04 15:39:35;;;;;;;4.40;3.33;;;;;;;;;;5015225;28;20029;-75
2021/12/04 15:52:53;;;;;;;4.20;3.13;;;;;;;;;;5012040;28;20435;-75
2021/12/04 15:55:22;;;;;;;3.88;3.25;;;;;;;;;;4995884;28;20068;-75
2021/12/04 15:58:04;;;;;;;4.47;3.70;;;;;;;;;;4988277;28;20442;-75
2021/12/04 16:00:31;;;;;;;4.80;3.97;;;;;;;;;;5013068;28;20498;-74
2021/12/04 16:02:58;;;;;;;4.57;3.70;;;;;;;;;;5014006;28;20053;-75
2021/12/04 16:05:25;;;;;;;4.13;3.45;;;;;;;;;;5007681;28;20084;-75
2021/12/04 16:08:00;;;;;;;5.35;4.28;;;;;;;;;;5004668;28;20026;-74
2021/12/04 16:10:25;;;;;;;5.85;3.85;;;;;;;;;;4998086;28;20021;-75
2021/12/04 16:12:52;;;;;;;4.77;4.03;;;;;;;;;;5015229;28;20438;-74
2021/12/04 16:15:20;;;;;;;5.78;4.28;;;;;;;;;;5013735;28;20028;-75
2021/12/04 16:17:45;;;;;;;5.03;4.25;;;;;;;;;;5014030;28;20030;-74
2021/12/04 16:20:13;;;;;;;5.45;4.30;;;;;;;;;;5015053;28;20021;-74
2021/12/04 16:22:40;;;;;;;11.90;7.53;;;;;;;;;;5014079;28;20038;-75
2021/12/04 16:25:08;;;;;;;4.83;4.03;;;;;;;;;;5014486;28;20301;-75
2021/12/04 16:27:45;;;;;;;6.25;4.28;;;;;;;;;;5013293;28;20045;-75
2021/12/04 16:30:28;;;;;;;5.88;4.57;;;;;;;;;;5011884;28;20033;-75
2021/12/04 16:35:26;;;;;;;7.47;4.53;;;;;;;;;;5015121;28;20437;-75
2021/12/04 16:37:51;;;;;;;6.18;4.72;;;;;;;;;;4997785;28;20437;-74
2021/12/04 16:40:33;;;;;;;5.73;4.63;;;;;;;;;;5007456;28;20018;-75
2021/12/04 16:43:12;;;;;;;6.00;4.90;;;;;;;;;;5014019;28;20025;-75
2021/12/04 16:45:40;;;;;;;6.20;5.60;;;;;;;;;;5013227;28;20030;-75
2021/12/04 16:48:07;;;;;;;5.37;4.27;;;;;;;;;;5013332;28;20451;-75
2021/12/04 16:54:50;;;;;;;5.37;4.10;;;;;;;;;;5013335;28;20026;-75
2021/12/04 16:58:44;;;;;;;5.20;4.37;;;;;;;;;;5000919;28;20114;-75
2021/12/04 17:01:09;;;;;;;6.28;4.80;;;;;;;;;;5014324;28;20018;-75
2021/12/04 17:03:35;;;;;;;6.63;5.22;;;;;;;;;;5011371;28;20068;-74
2021/12/04 17:06:00;;;;;;;5.63;4.70;;;;;;;;;;5010833;28;20034;-75
2021/12/04 17:08:25;;;;;;;5.50;4.77;;;;;;;;;;5013516;28;20029;-74
2021/12/04 17:10:51;;;;;;;8.07;5.20;;;;;;;;;;5013899;28;20030;-75
2021/12/04 17:13:16;;;;;;;7.23;5.47;;;;;;;;;;5012747;28;20112;-75
2021/12/04 17:15:47;;;;;;;7.40;5.60;;;;;;;;;;4998658;28;20021;-75
2021/12/04 17:18:16;;;;;;;6.87;5.10;;;;;;;;;;4995729;28;20379;-75
2021/12/04 17:20:42;;;;;;;7.05;5.05;;;;;;;;;;5007971;28;20455;-75
2021/12/04 17:23:07;;;;;;;6.53;4.97;;;;;;;;;;5012417;28;20113;-75
2021/12/04 17:25:35;;;;;;;6.25;4.90;;;;;;;;;;5001501;28;20046;-75
2021/12/04 17:28:00;;;;;;;5.93;4.80;;;;;;;;;;4993606;28;20088;-75
2021/12/04 17:30:25;;;;;;;5.32;4.82;;;;;;;;;;5011530;28;20033;-75
2021/12/04 17:32:51;;;;;;;5.47;4.03;;;;;;;;;;5007884;28;20419;-75
2021/12/04 17:35:18;;;;;;;7.05;5.20;;;;;;;;;;4995465;28;20010;-75
2021/12/04 17:37:43;;;;;;;7.72;4.78;;;;;;;;;;4998717;28;20030;-74
2021/12/04 17:40:08;;;;;;;5.85;4.72;;;;;;;;;;4995634;28;20084;-75
2021/12/04 17:42:34;;;;;;;7.13;4.55;;;;;;;;;;5013066;28;20099;-73
2021/12/04 17:45:00;;;;;;;5.63;4.68;;;;;;;;;;5013012;28;20026;-74
2021/12/04 17:47:27;;;;;;;5.45;4.53;;;;;;;;;;5012722;28;20018;-74
2021/12/04 17:49:53;;;;;;;5.57;4.20;;;;;;;;;;5011969;28;20025;-75
2021/12/04 17:52:18;;;;;;;5.78;4.30;;;;;;;;;;5012517;28;20025;-74
2021/12/04 17:54:43;;;;;;;5.28;4.43;;;;;;;;;;5011518;28;20485;-75
2021/12/04 17:57:09;;;;;;;5.32;4.18;;;;;;;;;;5012404;28;20022;-75
2021/12/04 17:59:34;;;;;;;4.72;3.95;;;;;;;;;;5003801;28;20053;-74
2021/12/04 18:02:08;;;;;;;4.72;3.65;;;;;;;;;;5007403;28;20073;-75
2021/12/04 18:04:35;;;;;;;5.15;3.33;;;;;;;;;;5013013;28;20371;-75
2021/12/04 18:07:03;;;;;;;3.72;3.08;;;;;;;;;;5009975;28;20006;-75
2021/12/04 18:09:32;;;;;;;4.60;3.63;;;;;;;;;;5011720;28;20466;-74
2021/12/04 18:11:59;;;;;;;4.18;3.33;;;;;;;;;;5010969;28;20066;-75
2021/12/04 18:14:25;;;;;;;3.63;3.25;;;;;;;;;;5011474;28;20570;-74
2021/12/04 18:16:51;;;;;;;4.53;3.20;;;;;;;;;;5012760;28;20113;-75
2021/12/04 18:19:18;;;;;;;3.65;2.88;;;;;;;;;;5010925;28;20022;-74